LPPSLPFR

Guest
Details From LPPS - Porto Santo
To LPFR - Faro
Flight Number -
Tags decoded
Created
Modified
Stats Distance 475 nm / 879 km
Max Altitude 0 ft / 0 m
Waypoints 2
Social Downloads 0
Likes 0
Share VATSIM

Download

Looking for another format? Having issues loading an existing format? Contact us
Advertisement - Login to hide

Notes

Requested: LPPS LPFR

Route

LPPS LPFR

ID Type Via Altitude (ft/m) Position (lat/lon) Dist (leg/tot) Name
O LPPS APT - 0 / 0 33.07341 / -16.34995 - / 0 nm Porto Santo
O LPFR APT - 0 / 0 37.01534 / -7.97233 474 / 474 nm Faro

Altitude Profile

Advertisement - Login to hide

Weather


0- 5 10 15 20 25 30 35+ Temperature / °C

Clouds and Precipitation
Forecast for 2018-09-21 12:00 UTC. Updated 44 minutes ago

Ground ~20,000 ft ~40,000 ft Winds

LPPS

Details ICAO LPPS (PXO)
Name Porto Santo
Region Portugal
Timezone Atlantic/Madeira (UTC+1.0)
Stats Elevation 340 ft / 104 m (AMSL)
Location 33.073300° -16.349800°
Runways 1
Magnetic Variation 4.724° W

METAR

LPPS 211000Z 04008KT 010V080 9999 SCT015 23/17 Q1022

Decode

TAF

TAF LPPS 210500Z 2106/2212 03008KT 9999 SCT015 TEMPO 2106/2212 FEW015 BKN030 PROB40 TEMPO 2110/2118 09008KT

Decode

Departure Runways

ID Width Length Bearing (true/mag) Surface Threshold Overrun Markings Lighting
18 140 ft / 43 m 9,856 ft / 3,004 m 178.12° / 182.84° ASPHALT 0 ft / 0 m 0 ft / 0 m PREC-APP EDGE THRESHOLD SALS
36 140 ft / 43 m 9,856 ft / 3,004 m 358.12° / 2.84° ASPHALT 0 ft / 0 m 0 ft / 0 m PREC-APP EDGE THRESHOLD SALS

LPFR

Details ICAO LPFR (FAO)
Name Faro
Region Portugal
Timezone Europe/Lisbon (UTC+1.0)
Stats Elevation 22 ft / 7 m (AMSL)
Location 37.015300° -7.972320°
Runways 1
Magnetic Variation 1.844° W

METAR

LPFR 211000Z 21005KT 150V240 CAVOK 26/17 Q1019

Decode

TAF

TAF LPFR 210500Z 2106/2206 VRB05KT CAVOK BECMG 2110/2112 20007KT BECMG 2114/2116 25010KT BECMG 2120/2122 32005KT BECMG 2200/2203 06008KT

Decode

Destination Runways

ID Width Length Bearing (true/mag) Surface Threshold Overrun Markings Lighting
10 148 ft / 45 m 8,179 ft / 2,493 m 100.08° / 101.92° ASPHALT 148 ft / 45 m 0 ft / 0 m PREC-APP EDGE THRESHOLD REIL-OMNI
28 148 ft / 45 m 8,179 ft / 2,493 m 280.09° / 281.94° ASPHALT 144 ft / 44 m 0 ft / 0 m PREC-APP EDGE THRESHOLD REIL-OMNI

Approach Navaids

Runway Type Ident Frequency Range Bearing (true/mag) Slope Elevation
28 GS IIF 109.50 MHz 10 nm / 19 km 280.17° / 282.02 ° 3.00° 24 ft / 7 m (AMSL)
28 DME IIF 109.50 MHz 18 nm / 33 km - - 24 ft / 7 m (AMSL)
28 LOC-ILS IIF 109.50 MHz 18 nm / 33 km 280.08° / 281.92 ° - 22 ft / 7 m (AMSL)

Popular Alternatives